Time;durP1;ratioP1;P1;durP2;ratioP2;P2;SDS_P1;SDS_P2;PMS_P1;PMS_P2;Temp;Humidity;BMP_temperature;BMP_pressure;BME280_temperature;BME280_humidity;BME280_pressure;Samples;Min_cycle;Max_cycle;Signal;HPM_P1;HPM_P2
2023/05/31 05:24:16;;;;;;;;;;;;;;;;;;5497040;23;20337;-83
2023/05/31 05:26:41;;;;;;;;;;;;;;;;;;4974318;28;19980;-84
2023/05/31 05:29:06;;;;;;;;;;;;;;;;;;4973831;28;19926;-84
2023/05/31 05:31:32;;;;;;;;;;;;;;;;;;4974130;28;19926;-84
2023/05/31 05:33:57;;;;;;;;;;;;;;;;;;4987103;28;19926;-84
2023/05/31 05:36:22;;;;;;;;;;;;;;;;;;4972637;28;19926;-84
2023/05/31 05:38:47;;;;;;;;;;;;;;;;;;4973202;28;19926;-84
2023/05/31 05:41:13;;;;;;;;;;;;;;;;;;4972982;28;19958;-83
2023/05/31 05:43:39;;;;;;;;;;;;;;;;;;4973295;28;20017;-83
2023/05/31 05:46:04;;;;;;;;;;;;;;;;;;4973194;28;19961;-81
2023/05/31 05:48:29;;;;;;;;;;;;;;;;;;4973575;28;19965;-84
2023/05/31 05:50:55;;;;;;;;;;;;;;;;;;4972878;28;19998;-83
2023/05/31 05:53:20;;;;;;;;;;;;;;;;;;4972899;28;19930;-83
2023/05/31 05:55:50;;;;;;;;;;;;;;;;;;4972991;28;19954;-83
2023/05/31 05:58:16;;;;;;;;;;;;;;;;;;4973220;28;20004;-82
2023/05/31 06:00:42;;;;;;;;;;;;;;;;;;4977550;28;20452;-84
2023/05/31 06:03:08;;;;;;;;;;;;;;;;;;4992073;28;19925;-83
2023/05/31 06:05:33;;;;;;;;;;;;;;;;;;4992457;28;20481;-83
2023/05/31 06:07:58;;;;;;;;;;;;;;;;;;4992794;28;19926;-82
2023/05/31 06:10:24;;;;;;;;;;;;;;;;;;4991982;28;19938;-82
2023/05/31 06:12:50;;;;;;;;;;;;;;;;;;4992567;28;19933;-82
2023/05/31 06:15:15;;;;;;;;;;;;;;;;;;4991698;28;19930;-81
2023/05/31 06:17:41;;;;;;;;;;;;;;;;;;4992629;28;19956;-81
2023/05/31 06:20:06;;;;;;;;;;;;;;;;;;4990059;28;19922;-81
2023/05/31 06:22:32;;;;;;;;;;;;;;;;;;4954956;28;19930;-81
2023/05/31 06:24:57;;;;;;;;;;;;;;;;;;4976997;28;19926;-80
2023/05/31 06:27:23;;;;;;;;;;;;;;;;;;4978720;28;19926;-81
2023/05/31 06:29:54;;;;;;;;;;;;;;;;;;4969021;28;19933;-81
2023/05/31 06:32:20;;;;;;;;;;;;;;;;;;4966329;28;20774;-81
2023/05/31 06:34:46;;;;;;;;;;;;;;;;;;4966832;28;19937;-80
2023/05/31 06:37:11;;;;;;;;;;;;;;;;;;4972234;28;20424;-80
2023/05/31 06:39:36;;;;;;;;;;;;;;;;;;4949653;28;19998;-82
2023/05/31 06:42:01;;;;;;;;;;;;;;;;;;4976644;28;19930;-81
2023/05/31 06:44:27;;;;;;;;;;;;;;;;;;4966388;28;20489;-80
2023/05/31 06:46:52;;;;;;;;;;;;;;;;;;4966002;28;20319;-83
2023/05/31 06:49:18;;;;;;;;;;;;;;;;;;4968811;28;19926;-81
2023/05/31 06:51:43;;;;;;;;;;;;;;;;;;4959686;28;19933;-79
2023/05/31 06:54:08;;;;;;;;;;;;;;;;;;4972477;28;19929;-79
2023/05/31 06:56:33;;;;;;;;;;;;;;;;;;4969081;28;20527;-82
2023/05/31 06:58:59;;;;;;;;;;;;;;;;;;4974531;28;19930;-82
2023/05/31 07:01:24;;;;;;;;;;;;;;;;;;4970664;28;19930;-82
2023/05/31 07:03:50;;;;;;;;;;;;;;;;;;4977046;28;19930;-83
2023/05/31 07:06:15;;;;;;;;;;;;;;;;;;4964208;28;20367;-80
2023/05/31 07:08:41;;;;;;;;;;;;;;;;;;4964846;28;19930;-80
2023/05/31 07:11:06;;;;;;;;;;;;;;;;;;4965318;28;19937;-82
2023/05/31 07:13:31;;;;;;;;;;;;;;;;;;4965919;28;19926;-83
2023/05/31 07:15:57;;;;;;;;;;;;;;;;;;4965368;28;20393;-82
2023/05/31 07:18:22;;;;;;;;;;;;;;;;;;4966390;28;20301;-81
2023/05/31 07:20:47;;;;;;;;;;;;;;;;;;4967484;28;19937;-81
2023/05/31 07:23:12;;;;;;;;;;;;;;;;;;4978609;28;19953;-81
2023/05/31 07:25:38;;;;;;;;;;;;;;;;;;4977871;28;19953;-83
2023/05/31 07:28:03;;;;;;;;;;;;;;;;;;4975534;28;19932;-79
2023/05/31 07:30:30;;;;;;;;;;;;;;;;;;4971967;28;20013;-80
2023/05/31 07:32:55;;;;;;;;;;;;;;;;;;4961323;28;19965;-86
2023/05/31 07:35:20;;;;;;;;;;;;;;;;;;4966851;28;19930;-83
2023/05/31 07:37:45;;;;;;;;;;;;;;;;;;4966585;28;19932;-87
2023/05/31 07:40:11;;;;;;;;;;;;;;;;;;4965981;28;20302;-83
2023/05/31 07:42:37;;;;;;;;;;;;;;;;;;4965735;28;19933;-83
2023/05/31 07:45:03;;;;;;;;;;;;;;;;;;4968535;28;20028;-84
2023/05/31 07:47:29;;;;;;;;;;;;;;;;;;4970216;28;19930;-86
2023/05/31 07:49:54;;;;;;;;;;;;;;;;;;4969494;28;19930;-86
2023/05/31 07:52:21;;;;;;;;;;;;;;;;;;4974305;28;19934;-83
2023/05/31 07:54:47;;;;;;;;;;;;;;;;;;4980787;28;19930;-84
2023/05/31 07:57:12;;;;;;;;;;;;;;;;;;4980459;28;19972;-86
2023/05/31 07:59:38;;;;;;;;;;;;;;;;;;4969037;28;19965;-85
2023/05/31 08:02:04;;;;;;;;;;;;;;;;;;4982439;28;19926;-87
2023/05/31 08:04:29;;;;;;;;;;;;;;;;;;4957787;28;19930;-87
2023/05/31 08:06:54;;;;;;;;;;;;;;;;;;4967515;28;20826;-87
2023/05/31 08:09:19;;;;;;;;;;;;;;;;;;4966784;28;20024;-86
2023/05/31 08:11:45;;;;;;;;;;;;;;;;;;4949741;28;19930;-86
2023/05/31 08:14:10;;;;;;;;;;;;;;;;;;4966709;28;20233;-87
2023/05/31 08:16:36;;;;;;;;;;;;;;;;;;4966651;28;19926;-83
2023/05/31 08:19:02;;;;;;;;;;;;;;;;;;4975941;28;19929;-86
2023/05/31 08:21:27;;;;;;;;;;;;;;;;;;4965975;28;19930;-86
2023/05/31 08:23:53;;;;;;;;;;;;;;;;;;4966568;28;19931;-87
2023/05/31 08:26:18;;;;;;;;;;;;;;;;;;4966120;28;19926;-88
2023/05/31 08:28:43;;;;;;;;;;;;;;;;;;4975612;28;19922;-86
2023/05/31 08:31:09;;;;;;;;;;;;;;;;;;4969409;28;19934;-85
2023/05/31 08:33:34;;;;;;;;;;;;;;;;;;4967108;28;19930;-85
2023/05/31 08:36:01;;;;;;;;;;;;;;;;;;4966265;28;19926;-86
2023/05/31 08:38:29;;;;;;;;;;;;;;;;;;4965868;28;19926;-84
2023/05/31 08:40:56;;;;;;;;;;;;;;;;;;4966380;28;19922;-86
2023/05/31 08:43:21;;;;;;;;;;;;;;;;;;4965744;28;19934;-85
2023/05/31 08:45:50;;;;;;;;;;;;;;;;;;4966517;28;20394;-85
2023/05/31 08:48:20;;;;;;;;;;;;;;;;;;4965758;28;20012;-87
2023/05/31 08:50:46;;;;;;;;;;;;;;;;;;4966575;28;19962;-85
2023/05/31 08:53:12;;;;;;;;;;;;;;;;;;4965933;28;20043;-84
2023/05/31 08:55:38;;;;;;;;;;;;;;;;;;4947723;28;20020;-86
2023/05/31 08:58:04;;;;;;;;;;;;;;;;;;4965938;28;19969;-87
2023/05/31 09:00:29;;;;;;;;;;;;;;;;;;4966810;28;19937;-86
2023/05/31 09:02:55;;;;;;;;;;;;;;;;;;4965103;28;20387;-87
2023/05/31 09:05:20;;;;;;;;;;;;;;;;;;4969736;28;19938;-87
2023/05/31 09:07:47;;;;;;;;;;;;;;;;;;4974025;28;20367;-88
2023/05/31 09:10:14;;;;;;;;;;;;;;;;;;4973093;28;19953;-85
2023/05/31 09:12:40;;;;;;;;;;;;;;;;;;4974048;28;19949;-86
2023/05/31 09:15:05;;;;;;;;;;;;;;;;;;4973658;28;19926;-86
2023/05/31 09:17:31;;;;;;;;;;;;;;;;;;4975571;28;19932;-86
2023/05/31 09:19:56;;;;;;;;;;;;;;;;;;4976276;28;19953;-85
2023/05/31 09:22:21;;;;;;;;;;;;;;;;;;4975344;28;19930;-87
2023/05/31 09:24:59;;;;;;;;;;;;;;;;;;4973921;28;19953;-84
2023/05/31 09:27:26;;;;;;;;;;;;;;;;;;4972886;28;19933;-86
2023/05/31 09:29:54;;;;;;;;;;;;;;;;;;4973729;28;19940;-86
2023/05/31 09:32:20;;;;;;;;;;;;;;;;;;4980628;28;19933;-86
2023/05/31 09:34:46;;;;;;;;;;;;;;;;;;4993311;28;19926;-87
2023/05/31 09:37:20;;;;;;;;;;;;;;;;;;4993246;28;20148;-86
2023/05/31 09:39:53;;;;;;;;;;;;;;;;;;4993209;28;19929;-86
2023/05/31 09:42:19;;;;;;;;;;;;;;;;;;4992637;28;19933;-83
2023/05/31 09:44:47;;;;;;;;;;;;;;;;;;4992940;28;20303;-86
2023/05/31 09:47:14;;;;;;;;;;;;;;;;;;4992178;28;19926;-85
2023/05/31 09:49:39;;;;;;;;;;;;;;;;;;4993133;28;19922;-86
2023/05/31 09:52:10;;;;;;;;;;;;;;;;;;4992721;28;19926;-84
2023/05/31 09:54:37;;;;;;;;;;;;;;;;;;4992654;28;19926;-86
2023/05/31 09:57:02;;;;;;;;;;;;;;;;;;4992461;28;19926;-86
2023/05/31 09:59:31;;;;;;;;;;;;;;;;;;4992436;28;19980;-84
2023/05/31 10:01:56;;;;;;;;;;;;;;;;;;4978203;28;20421;-84
2023/05/31 10:04:22;;;;;;;;;;;;;;;;;;4972767;28;19949;-85
2023/05/31 10:06:47;;;;;;;;;;;;;;;;;;4973180;28;20032;-85
2023/05/31 10:09:13;;;;;;;;;;;;;;;;;;4972777;28;19933;-85
2023/05/31 10:11:41;;;;;;;;;;;;;;;;;;4973350;28;19950;-87
2023/05/31 10:14:14;;;;;;;;;;;;;;;;;;4972720;28;19926;-84
2023/05/31 10:16:45;;;;;;;;;;;;;;;;;;4973325;28;19926;-84
2023/05/31 10:19:11;;;;;;;;;;;;;;;;;;4972372;28;19926;-85
2023/05/31 10:21:40;;;;;;;;;;;;;;;;;;4974001;28;20020;-85
2023/05/31 10:24:08;;;;;;;;;;;;;;;;;;4989249;28;19989;-83
2023/05/31 10:26:54;;;;;;;;;;;;;;;;;;4990262;28;19933;-84
2023/05/31 10:29:35;;;;;;;;;;;;;;;;;;4989268;28;19926;-87
2023/05/31 10:32:04;;;;;;;;;;;;;;;;;;4978347;28;19910;-86
2023/05/31 10:34:31;;;;;;;;;;;;;;;;;;4994917;28;19929;-88
2023/05/31 10:36:56;;;;;;;;;;;;;;;;;;4993047;28;19956;-87
2023/05/31 10:39:22;;;;;;;;;;;;;;;;;;4992131;28;19953;-88
2023/05/31 10:41:52;;;;;;;;;;;;;;;;;;4992514;28;19977;-87
2023/05/31 10:44:20;;;;;;;;;;;;;;;;;;4992200;28;19930;-85
2023/05/31 10:46:47;;;;;;;;;;;;;;;;;;4992106;28;19996;-85
2023/05/31 10:49:13;;;;;;;;;;;;;;;;;;4991759;28;19961;-86
2023/05/31 10:51:42;;;;;;;;;;;;;;;;;;4992569;28;19933;-85
2023/05/31 10:54:08;;;;;;;;;;;;;;;;;;4974000;28;19927;-86
2023/05/31 10:56:36;;;;;;;;;;;;;;;;;;4973060;28;19938;-85
2023/05/31 10:59:03;;;;;;;;;;;;;;;;;;4954960;28;20353;-84
2023/05/31 11:01:29;;;;;;;;;;;;;;;;;;4982835;28;19998;-85
2023/05/31 11:03:57;;;;;;;;;;;;;;;;;;4991989;28;20014;-86
2023/05/31 11:06:23;;;;;;;;;;;;;;;;;;4991548;28;20302;-84
2023/05/31 11:09:01;;;;;;;;;;;;;;;;;;4992890;28;19968;-88
2023/05/31 11:11:32;;;;;;;;;;;;;;;;;;4982574;28;19930;-87
2023/05/31 11:14:02;;;;;;;;;;;;;;;;;;4972394;28;20394;-85
2023/05/31 11:16:31;;;;;;;;;;;;;;;;;;4972090;28;19933;-88
2023/05/31 11:19:06;;;;;;;;;;;;;;;;;;4973079;28;20458;-85
2023/05/31 11:21:47;;;;;;;;;;;;;;;;;;4975967;28;19930;-88
2023/05/31 11:24:27;;;;;;;;;;;;;;;;;;4975202;28;19934;-85
2023/05/31 11:26:53;;;;;;;;;;;;;;;;;;4975537;28;19932;-87
2023/05/31 11:29:18;;;;;;;;;;;;;;;;;;4976147;28;19926;-84
2023/05/31 11:31:57;;;;;;;;;;;;;;;;;;4976620;28;20006;-85
2023/05/31 11:34:26;;;;;;;;;;;;;;;;;;4995050;28;19925;-85
2023/05/31 11:36:51;;;;;;;;;;;;;;;;;;4995414;28;19980;-86
2023/05/31 11:39:17;;;;;;;;;;;;;;;;;;4994631;28;19930;-85
2023/05/31 11:41:43;;;;;;;;;;;;;;;;;;4995084;28;19932;-85
2023/05/31 11:44:10;;;;;;;;;;;;;;;;;;4994933;28;19933;-88
2023/05/31 11:46:39;;;;;;;;;;;;;;;;;;4995879;28;19932;-88
2023/05/31 11:49:04;;;;;;;;;;;;;;;;;;4977170;28;20387;-85
2023/05/31 11:51:30;;;;;;;;;;;;;;;;;;4976160;28;19933;-90
2023/05/31 11:53:56;;;;;;;;;;;;;;;;;;4975539;28;19965;-87
2023/05/31 11:56:33;;;;;;;;;;;;;;;;;;4974764;28;19930;-87
2023/05/31 11:58:58;;;;;;;;;;;;;;;;;;4975151;28;20012;-87
2023/05/31 12:01:24;;;;;;;;;;;;;;;;;;4974777;28;20402;-86
2023/05/31 12:03:56;;;;;;;;;;;;;;;;;;4975146;28;19932;-86
2023/05/31 12:06:22;;;;;;;;;;;;;;;;;;4974886;28;20444;-86
2023/05/31 12:08:47;;;;;;;;;;;;;;;;;;4975546;28;20025;-83
2023/05/31 12:11:12;;;;;;;;;;;;;;;;;;4974260;28;19937;-87
2023/05/31 12:13:38;;;;;;;;;;;;;;;;;;4975813;28;20033;-87
2023/05/31 12:16:03;;;;;;;;;;;;;;;;;;4975602;28;19951;-87
2023/05/31 12:18:28;;;;;;;;;;;;;;;;;;4974065;28;19933;-85
2023/05/31 12:20:54;;;;;;;;;;;;;;;;;;4974073;28;19933;-85
2023/05/31 12:23:19;;;;;;;;;;;;;;;;;;4970698;28;19934;-88
2023/05/31 12:25:48;;;;;;;;;;;;;;;;;;4974001;28;19926;-88
2023/05/31 12:28:15;;;;;;;;;;;;;;;;;;4962800;28;19969;-88
2023/05/31 12:30:43;;;;;;;;;;;;;;;;;;4974854;28;19946;-88
2023/05/31 12:33:09;;;;;;;;;;;;;;;;;;4982005;28;19972;-88
2023/05/31 12:35:39;;;;;;;;;;;;;;;;;;4973978;28;19949;-86
2023/05/31 12:38:04;;;;;;;;;;;;;;;;;;4973761;28;19926;-84
2023/05/31 12:40:30;;;;;;;;;;;;;;;;;;4977014;28;19933;-86
2023/05/31 12:43:05;;;;;;;;;;;;;;;;;;4974196;28;20311;-87
2023/05/31 12:45:38;;;;;;;;;;;;;;;;;;4974192;28;19973;-88
2023/05/31 12:48:03;;;;;;;;;;;;;;;;;;4975886;28;19930;-81
2023/05/31 12:50:29;;;;;;;;;;;;;;;;;;4975496;28;20016;-85
2023/05/31 12:52:56;;;;;;;;;;;;;;;;;;4973239;28;20398;-89
2023/05/31 12:55:21;;;;;;;;;;;;;;;;;;4955050;28;19930;-87
2023/05/31 12:57:46;;;;;;;;;;;;;;;;;;4973462;28;20061;-87
2023/05/31 13:00:12;;;;;;;;;;;;;;;;;;4973945;28;19941;-87
2023/05/31 13:02:38;;;;;;;;;;;;;;;;;;4994103;28;20398;-88
2023/05/31 13:05:07;;;;;;;;;;;;;;;;;;4976896;28;19926;-88
2023/05/31 13:07:32;;;;;;;;;;;;;;;;;;4973432;28;19929;-86
2023/05/31 13:09:58;;;;;;;;;;;;;;;;;;4967299;28;19931;-86
2023/05/31 13:12:23;;;;;;;;;;;;;;;;;;4953434;28;20142;-86
2023/05/31 13:14:51;;;;;;;;;;;;;;;;;;4973051;28;19926;-85
2023/05/31 13:17:17;;;;;;;;;;;;;;;;;;4956454;28;19927;-85
2023/05/31 13:19:42;;;;;;;;;;;;;;;;;;4974107;28;19929;-88
2023/05/31 13:22:08;;;;;;;;;;;;;;;;;;4973521;28;19934;-86
2023/05/31 13:24:33;;;;;;;;;;;;;;;;;;4974265;28;19926;-84
2023/05/31 13:26:59;;;;;;;;;;;;;;;;;;4973827;28;20367;-89
2023/05/31 13:29:25;;;;;;;;;;;;;;;;;;4972303;28;19938;-88
2023/05/31 13:31:51;;;;;;;;;;;;;;;;;;4976708;28;20382;-87
2023/05/31 13:34:17;;;;;;;;;;;;;;;;;;4992735;28;20024;-89
2023/05/31 13:36:46;;;;;;;;;;;;;;;;;;4993011;28;20033;-83
2023/05/31 13:39:13;;;;;;;;;;;;;;;;;;4972508;28;19937;-85
2023/05/31 13:41:57;;;;;;;;;;;;;;;;;;4973536;28;19930;-87
2023/05/31 13:44:22;;;;;;;;;;;;;;;;;;4973522;28;19980;-88
2023/05/31 13:46:48;;;;;;;;;;;;;;;;;;4958192;28;20006;-86
2023/05/31 13:49:15;;;;;;;;;;;;;;;;;;4956063;28;19961;-87
2023/05/31 13:51:41;;;;;;;;;;;;;;;;;;4973485;28;20079;-90
2023/05/31 13:54:06;;;;;;;;;;;;;;;;;;4976348;28;19933;-88
2023/05/31 13:56:32;;;;;;;;;;;;;;;;;;4961207;28;19933;-87
2023/05/31 13:58:57;;;;;;;;;;;;;;;;;;4954741;28;19954;-87
2023/05/31 14:01:23;;;;;;;;;;;;;;;;;;4967665;28;19923;-87
2023/05/31 14:03:48;;;;;;;;;;;;;;;;;;4968391;28;19940;-87
2023/05/31 14:06:14;;;;;;;;;;;;;;;;;;4976596;28;19930;-86
2023/05/31 14:08:39;;;;;;;;;;;;;;;;;;4968592;28;19930;-86
2023/05/31 14:11:04;;;;;;;;;;;;;;;;;;4957657;28;19926;-85
2023/05/31 14:13:31;;;;;;;;;;;;;;;;;;4970284;28;20118;-89
2023/05/31 14:15:56;;;;;;;;;;;;;;;;;;4970209;28;20045;-86
2023/05/31 14:18:22;;;;;;;;;;;;;;;;;;4969667;28;20016;-87
2023/05/31 14:20:49;;;;;;;;;;;;;;;;;;4971904;28;19934;-88
2023/05/31 14:23:14;;;;;;;;;;;;;;;;;;4977796;28;19965;-87
2023/05/31 14:25:39;;;;;;;;;;;;;;;;;;4984359;28;19926;-88
2023/05/31 14:28:05;;;;;;;;;;;;;;;;;;4991640;28;19933;-82
2023/05/31 14:30:30;;;;;;;;;;;;;;;;;;4968848;28;19926;-87
2023/05/31 14:32:55;;;;;;;;;;;;;;;;;;4986535;28;19914;-87
2023/05/31 14:35:20;;;;;;;;;;;;;;;;;;4975648;28;20020;-88
2023/05/31 14:37:46;;;;;;;;;;;;;;;;;;4970326;28;20060;-88
2023/05/31 14:40:11;;;;;;;;;;;;;;;;;;4973769;28;20021;-87
2023/05/31 14:42:37;;;;;;;;;;;;;;;;;;4966269;28;19931;-86
2023/05/31 14:45:03;;;;;;;;;;;;;;;;;;4960818;28;20369;-88
2023/05/31 14:47:30;;;;;;;;;;;;;;;;;;4968630;28;20039;-87
2023/05/31 14:49:55;;;;;;;;;;;;;;;;;;4978626;28;19930;-88
2023/05/31 14:52:21;;;;;;;;;;;;;;;;;;4968760;28;19934;-88
2023/05/31 14:54:46;;;;;;;;;;;;;;;;;;4976398;28;19978;-88
2023/05/31 14:57:11;;;;;;;;;;;;;;;;;;4972413;28;20291;-87
2023/05/31 14:59:36;;;;;;;;;;;;;;;;;;4981727;28;19922;-89
2023/05/31 15:02:02;;;;;;;;;;;;;;;;;;4979816;28;19934;-88
2023/05/31 15:04:27;;;;;;;;;;;;;;;;;;4962958;28;19930;-85
2023/05/31 15:06:52;;;;;;;;;;;;;;;;;;4968123;28;19930;-85
2023/05/31 15:09:18;;;;;;;;;;;;;;;;;;4974469;28;19989;-87
2023/05/31 15:11:43;;;;;;;;;;;;;;;;;;4973930;28;19934;-87
2023/05/31 15:14:09;;;;;;;;;;;;;;;;;;4976415;28;20524;-87
2023/05/31 15:16:35;;;;;;;;;;;;;;;;;;4971262;28;20400;-87
2023/05/31 15:19:01;;;;;;;;;;;;;;;;;;4987525;28;20037;-87
2023/05/31 15:21:26;;;;;;;;;;;;;;;;;;4964039;28;19941;-87
2023/05/31 15:23:51;;;;;;;;;;;;;;;;;;4973405;28;19930;-88
2023/05/31 15:26:17;;;;;;;;;;;;;;;;;;4969611;28;19969;-90
2023/05/31 15:28:43;;;;;;;;;;;;;;;;;;4977843;28;20001;-91
2023/05/31 15:31:08;;;;;;;;;;;;;;;;;;4978634;28;20021;-91
2023/05/31 15:33:40;;;;;;;;;;;;;;;;;;4957202;28;20036;-87
2023/05/31 15:36:05;;;;;;;;;;;;;;;;;;4973591;28;19926;-91
2023/05/31 15:38:31;;;;;;;;;;;;;;;;;;4975586;28;20632;-92
2023/05/31 15:40:56;;;;;;;;;;;;;;;;;;4971383;28;19962;-88
2023/05/31 15:43:23;;;;;;;;;;;;;;;;;;4969844;28;19933;-85
2023/05/31 15:45:49;;;;;;;;;;;;;;;;;;4968622;28;19930;-87
2023/05/31 15:48:14;;;;;;;;;;;;;;;;;;4967949;28;19934;-93
2023/05/31 15:50:39;;;;;;;;;;;;;;;;;;4970003;28;20017;-88
2023/05/31 15:53:05;;;;;;;;;;;;;;;;;;4972232;28;19930;-89
2023/05/31 15:55:30;;;;;;;;;;;;;;;;;;4982646;28;19938;-87
2023/05/31 15:57:55;;;;;;;;;;;;;;;;;;4971608;28;19930;-88
2023/05/31 16:00:21;;;;;;;;;;;;;;;;;;4982670;28;19932;-89
2023/05/31 16:02:46;;;;;;;;;;;;;;;;;;4981408;28;20350;-89
2023/05/31 16:05:15;;;;;;;;;;;;;;;;;;4969956;28;19933;-88
2023/05/31 16:07:40;;;;;;;;;;;;;;;;;;4969926;28;19930;-87
2023/05/31 16:10:06;;;;;;;;;;;;;;;;;;4968407;28;19934;-88
2023/05/31 16:12:31;;;;;;;;;;;;;;;;;;4968822;28;20093;-88
2023/05/31 16:14:58;;;;;;;;;;;;;;;;;;4974985;28;20426;-90
2023/05/31 16:17:24;;;;;;;;;;;;;;;;;;4981891;28;20017;-88
2023/05/31 16:19:51;;;;;;;;;;;;;;;;;;4972689;28;20374;-93
2023/05/31 16:22:16;;;;;;;;;;;;;;;;;;4970747;28;19926;-91
2023/05/31 16:24:45;;;;;;;;;;;;;;;;;;4988656;28;20328;-90
2023/05/31 16:27:10;;;;;;;;;;;;;;;;;;4993654;28;19976;-88
2023/05/31 16:29:36;;;;;;;;;;;;;;;;;;4993633;28;19926;-88
2023/05/31 16:32:01;;;;;;;;;;;;;;;;;;4975415;28;19926;-90
2023/05/31 16:34:26;;;;;;;;;;;;;;;;;;4979789;28;19926;-89
2023/05/31 16:36:51;;;;;;;;;;;;;;;;;;4988445;28;19922;-89
2023/05/31 16:39:17;;;;;;;;;;;;;;;;;;4988097;28;20314;-90
2023/05/31 16:41:46;;;;;;;;;;;;;;;;;;4980919;28;19942;-93
2023/05/31 16:44:11;;;;;;;;;;;;;;;;;;4978470;28;19941;-94
2023/05/31 16:46:37;;;;;;;;;;;;;;;;;;4982155;28;19930;-93
2023/05/31 16:49:02;;;;;;;;;;;;;;;;;;4995214;28;19930;-96
2023/05/31 16:51:28;;;;;;;;;;;;;;;;;;5000977;28;20000;-92
2023/05/31 16:53:53;;;;;;;;;;;;;;;;;;4986787;28;20314;-91
2023/05/31 16:56:19;;;;;;;;;;;;;;;;;;4994634;28;19933;-94
2023/05/31 16:58:44;;;;;;;;;;;;;;;;;;4986503;28;19957;-89
2023/05/31 17:01:09;;;;;;;;;;;;;;;;;;4982248;28;19934;-95
2023/05/31 17:03:35;;;;;;;;;;;;;;;;;;4983285;28;20005;-89
2023/05/31 17:06:00;;;;;;;;;;;;;;;;;;4973170;28;19934;-93
2023/05/31 17:08:25;;;;;;;;;;;;;;;;;;4965284;28;19969;-89
2023/05/31 17:10:51;;;;;;;;;;;;;;;;;;4967352;28;19957;-90
2023/05/31 17:13:16;;;;;;;;;;;;;;;;;;4970456;28;19930;-89
2023/05/31 17:15:41;;;;;;;;;;;;;;;;;;4967356;28;19964;-91
2023/05/31 17:18:06;;;;;;;;;;;;;;;;;;4960811;28;19941;-83
2023/05/31 17:20:32;;;;;;;;;;;;;;;;;;4965406;28;20733;-84
2023/05/31 17:22:57;;;;;;;;;;;;;;;;;;4962130;28;19956;-83
2023/05/31 17:25:23;;;;;;;;;;;;;;;;;;4935008;28;20501;-84
2023/05/31 17:27:49;;;;;;;;;;;;;;;;;;4949365;28;19966;-83
2023/05/31 17:30:14;;;;;;;;;;;;;;;;;;4965809;28;20024;-84
2023/05/31 17:32:39;;;;;;;;;;;;;;;;;;4969014;28;20019;-85
2023/05/31 17:35:05;;;;;;;;;;;;;;;;;;4966432;28;19937;-81
2023/05/31 17:37:31;;;;;;;;;;;;;;;;;;4956290;28;20462;-84
2023/05/31 17:39:56;;;;;;;;;;;;;;;;;;4971492;28;20706;-83
2023/05/31 17:42:22;;;;;;;;;;;;;;;;;;4975250;28;20036;-83
2023/05/31 17:44:47;;;;;;;;;;;;;;;;;;4966895;28;19930;-83
2023/05/31 17:47:13;;;;;;;;;;;;;;;;;;4970301;28;20024;-86
2023/05/31 17:49:39;;;;;;;;;;;;;;;;;;4979438;28;19936;-87
2023/05/31 17:52:05;;;;;;;;;;;;;;;;;;4978025;28;19930;-86
2023/05/31 17:54:30;;;;;;;;;;;;;;;;;;4969884;28;19944;-84
2023/05/31 17:56:55;;;;;;;;;;;;;;;;;;4974508;28;19937;-85
2023/05/31 17:59:21;;;;;;;;;;;;;;;;;;4968398;28;20016;-84
2023/05/31 18:01:47;;;;;;;;;;;;;;;;;;4979452;28;19933;-84
2023/05/31 18:04:12;;;;;;;;;;;;;;;;;;4970514;28;19934;-84
2023/05/31 18:06:40;;;;;;;;;;;;;;;;;;4969941;28;20145;-83
2023/05/31 18:09:05;;;;;;;;;;;;;;;;;;4951632;28;20224;-84
2023/05/31 18:11:31;;;;;;;;;;;;;;;;;;4963779;28;19930;-85
2023/05/31 18:13:56;;;;;;;;;;;;;;;;;;4963853;28;19984;-84
2023/05/31 18:16:21;;;;;;;;;;;;;;;;;;4963621;28;19926;-84
2023/05/31 18:18:47;;;;;;;;;;;;;;;;;;4964655;28;20025;-84
2023/05/31 18:21:12;;;;;;;;;;;;;;;;;;4963451;28;19951;-84
2023/05/31 18:23:38;;;;;;;;;;;;;;;;;;4965437;28;20402;-84
2023/05/31 18:26:03;;;;;;;;;;;;;;;;;;4965260;28;19998;-83
2023/05/31 18:28:29;;;;;;;;;;;;;;;;;;4965363;28;20010;-85
2023/05/31 18:30:54;;;;;;;;;;;;;;;;;;4965981;28;19930;-84
2023/05/31 18:33:20;;;;;;;;;;;;;;;;;;4965636;28;19930;-86
2023/05/31 18:35:45;;;;;;;;;;;;;;;;;;4965459;28;20410;-83
2023/05/31 18:38:10;;;;;;;;;;;;;;;;;;4974763;28;19930;-85
2023/05/31 18:40:35;;;;;;;;;;;;;;;;;;4968599;28;20322;-85
2023/05/31 18:43:02;;;;;;;;;;;;;;;;;;4965820;28;20032;-91
2023/05/31 18:45:27;;;;;;;;;;;;;;;;;;4974639;28;19934;-78
2023/05/31 18:47:53;;;;;;;;;;;;;;;;;;4961538;28;19982;-83
2023/05/31 18:50:18;;;;;;;;;;;;;;;;;;4956076;28;19934;-85
2023/05/31 18:52:45;;;;;;;;;;;;;;;;;;4965043;28;19930;-86
2023/05/31 18:55:10;;;;;;;;;;;;;;;;;;4963693;28;19952;-84
2023/05/31 18:57:36;;;;;;;;;;;;;;;;;;4963043;28;19961;-83
2023/05/31 19:00:03;;;;;;;;;;;;;;;;;;4962046;28;20466;-84
2023/05/31 19:02:28;;;;;;;;;;;;;;;;;;4972862;28;20449;-84
2023/05/31 19:04:53;;;;;;;;;;;;;;;;;;4973236;28;19926;-85
2023/05/31 19:07:19;;;;;;;;;;;;;;;;;;4959249;28;19930;-85
2023/05/31 19:09:45;;;;;;;;;;;;;;;;;;4957643;28;19934;-83
2023/05/31 19:12:10;;;;;;;;;;;;;;;;;;4964514;28;19926;-84
2023/05/31 19:14:35;;;;;;;;;;;;;;;;;;4966408;28;20024;-84
2023/05/31 19:17:01;;;;;;;;;;;;;;;;;;4970152;28;19934;-84
2023/05/31 19:19:26;;;;;;;;;;;;;;;;;;4964756;28;20049;-84
2023/05/31 19:21:51;;;;;;;;;;;;;;;;;;4965056;28;20856;-84
2023/05/31 19:24:16;;;;;;;;;;;;;;;;;;4963963;28;19930;-83
2023/05/31 19:26:42;;;;;;;;;;;;;;;;;;4969108;28;20398;-85
2023/05/31 19:29:07;;;;;;;;;;;;;;;;;;4962525;28;19973;-84
2023/05/31 19:31:33;;;;;;;;;;;;;;;;;;4962873;28;19933;-83
2023/05/31 19:33:59;;;;;;;;;;;;;;;;;;4970062;28;20025;-86
2023/05/31 19:36:25;;;;;;;;;;;;;;;;;;4964706;28;19973;-84
2023/05/31 19:38:50;;;;;;;;;;;;;;;;;;4964947;28;20391;-83
2023/05/31 19:41:15;;;;;;;;;;;;;;;;;;4965343;28;19930;-84
2023/05/31 19:43:40;;;;;;;;;;;;;;;;;;4966560;28;19973;-84
2023/05/31 19:46:19;;;;;;;;;;;;;;;;;;4976357;28;19961;-84
2023/05/31 19:48:44;;;;;;;;;;;;;;;;;;4969991;28;19933;-84
2023/05/31 19:51:10;;;;;;;;;;;;;;;;;;4967935;28;20306;-83
2023/05/31 19:53:35;;;;;;;;;;;;;;;;;;4968266;28;19937;-85
2023/05/31 19:56:01;;;;;;;;;;;;;;;;;;4968360;28;20314;-84
2023/05/31 19:58:27;;;;;;;;;;;;;;;;;;4967882;28;19926;-85
2023/05/31 20:00:52;;;;;;;;;;;;;;;;;;4968363;28;19945;-84
2023/05/31 20:03:17;;;;;;;;;;;;;;;;;;4968814;28;19940;-83
2023/05/31 20:05:42;;;;;;;;;;;;;;;;;;4968027;28;20362;-84
2023/05/31 20:08:09;;;;;;;;;;;;;;;;;;4969185;28;19922;-84
2023/05/31 20:10:34;;;;;;;;;;;;;;;;;;4967734;28;20016;-83
2023/05/31 20:12:59;;;;;;;;;;;;;;;;;;4967624;28;20112;-84
2023/05/31 20:15:25;;;;;;;;;;;;;;;;;;4970691;28;19925;-86
2023/05/31 20:17:50;;;;;;;;;;;;;;;;;;4970577;28;19973;-84
2023/05/31 20:20:16;;;;;;;;;;;;;;;;;;4967667;28;19951;-85
2023/05/31 20:22:41;;;;;;;;;;;;;;;;;;4969740;28;20418;-85
2023/05/31 20:25:07;;;;;;;;;;;;;;;;;;4967808;28;19930;-85
2023/05/31 20:27:32;;;;;;;;;;;;;;;;;;4950673;28;19980;-82
2023/05/31 20:29:57;;;;;;;;;;;;;;;;;;4968613;28;19941;-83
2023/05/31 20:32:22;;;;;;;;;;;;;;;;;;4972619;28;20049;-83
2023/05/31 20:34:48;;;;;;;;;;;;;;;;;;4968049;28;20330;-83
2023/05/31 20:37:13;;;;;;;;;;;;;;;;;;4967026;28;20433;-83
2023/05/31 20:39:38;;;;;;;;;;;;;;;;;;4950822;28;19934;-83
2023/05/31 20:42:04;;;;;;;;;;;;;;;;;;4968812;28;20445;-86
2023/05/31 20:44:31;;;;;;;;;;;;;;;;;;4967379;28;20020;-83
2023/05/31 20:46:56;;;;;;;;;;;;;;;;;;4963100;28;20041;-83
2023/05/31 20:49:22;;;;;;;;;;;;;;;;;;4965005;28;20028;-85
2023/05/31 20:51:47;;;;;;;;;;;;;;;;;;4964574;28;19930;-83
2023/05/31 20:54:12;;;;;;;;;;;;;;;;;;4952736;28;20016;-85
2023/05/31 20:56:37;;;;;;;;;;;;;;;;;;4962235;28;19981;-83
2023/05/31 20:59:03;;;;;;;;;;;;;;;;;;4967449;28;19934;-84
2023/05/31 21:01:28;;;;;;;;;;;;;;;;;;4975984;28;19929;-82
2023/05/31 21:03:56;;;;;;;;;;;;;;;;;;4967111;28;19930;-85
2023/05/31 21:06:22;;;;;;;;;;;;;;;;;;4966798;28;20034;-83
2023/05/31 21:08:47;;;;;;;;;;;;;;;;;;4967193;28;20427;-82
2023/05/31 21:11:12;;;;;;;;;;;;;;;;;;4966722;28;19930;-81
2023/05/31 21:13:37;;;;;;;;;;;;;;;;;;4970507;28;19930;-82
2023/05/31 21:16:03;;;;;;;;;;;;;;;;;;4973306;28;19938;-83
2023/05/31 21:18:28;;;;;;;;;;;;;;;;;;4972727;28;19933;-84
2023/05/31 21:20:56;;;;;;;;;;;;;;;;;;4974328;28;19926;-84
2023/05/31 21:23:21;;;;;;;;;;;;;;;;;;4973243;28;19930;-86
2023/05/31 21:25:46;;;;;;;;;;;;;;;;;;4974536;28;19933;-85
2023/05/31 21:28:12;;;;;;;;;;;;;;;;;;4973882;28;19946;-84
2023/05/31 21:30:37;;;;;;;;;;;;;;;;;;4983264;28;20020;-84
2023/05/31 21:33:02;;;;;;;;;;;;;;;;;;4986420;28;20284;-84
2023/05/31 21:35:28;;;;;;;;;;;;;;;;;;4992638;28;20577;-85
2023/05/31 21:37:55;;;;;;;;;;;;;;;;;;4992967;28;19929;-83
2023/05/31 21:40:23;;;;;;;;;;;;;;;;;;4992752;28;19926;-84
2023/05/31 21:42:48;;;;;;;;;;;;;;;;;;4992448;28;20016;-84
2023/05/31 21:45:13;;;;;;;;;;;;;;;;;;4991960;28;20458;-83
2023/05/31 21:47:38;;;;;;;;;;;;;;;;;;4989422;28;19933;-83
2023/05/31 21:50:04;;;;;;;;;;;;;;;;;;4971372;28;20013;-83
2023/05/31 21:52:31;;;;;;;;;;;;;;;;;;4971155;28;19926;-83
2023/05/31 21:54:57;;;;;;;;;;;;;;;;;;4971808;28;20380;-83
2023/05/31 21:57:23;;;;;;;;;;;;;;;;;;4971459;28;20395;-83
2023/05/31 21:59:48;;;;;;;;;;;;;;;;;;4973680;28;19926;-82
2023/05/31 22:02:13;;;;;;;;;;;;;;;;;;4974660;28;19932;-81